Time,TemperatureF,DewpointF,PressureIn,WindDirection,WindDirectionDegrees,WindSpeedMPH,WindSpeedGustMPH,Humidity,HourlyPrecipIn,Conditions,Clouds,dailyrainin,SoftwareType,DateUTC
2013-10-20 00:01:00,42.4,40.5,29.74,WSW,243,9.2,12.7,93,0.00,RA,,0.00,WeatherDisplay:10.37,2013-10-20 04:01:00,
2013-10-20 00:06:00,42.5,40.6,29.74,WSW,245,9.0,11.5,93,0.00,RA,,0.00,WeatherDisplay:10.37,2013-10-20 04:06:00,
2013-10-20 00:11:00,42.7,40.5,29.74,WSW,246,7.4,10.4,92,0.00,SCT,,0.00,WeatherDisplay:10.37,2013-10-20 04:11:00,
2013-10-20 00:16:00,42.7,40.5,29.74,WSW,242,11.4,13.8,92,0.00,SCT,,0.00,WeatherDisplay:10.37,2013-10-20 04:16:00,
2013-10-20 00:21:00,42.7,40.5,29.74,WSW,250,6.6,11.5,92,0.00,SCT,,0.00,WeatherDisplay:10.37,2013-10-20 04:21:00,
2013-10-20 00:26:00,42.7,40.5,29.75,West,278,7.5,11.5,92,0.00,SCT,,0.00,WeatherDisplay:10.37,2013-10-20 04:26:00,
2013-10-20 00:31:00,42.7,40.5,29.75,SW,232,6.9,12.7,92,0.00,SCT,,0.00,WeatherDisplay:10.37,2013-10-20 04:31:00,
2013-10-20 00:36:00,42.8,40.6,29.75,SW,234,8.2,10.4,92,0.00,SCT,,0.00,WeatherDisplay:10.37,2013-10-20 04:36:00,
2013-10-20 00:41:00,42.8,40.6,29.75,West,262,9.5,12.7,92,0.00,SCT,,0.00,WeatherDisplay:10.37,2013-10-20 04:41:00,
2013-10-20 00:46:00,42.8,40.6,29.75,WNW,294,6.3,11.5,92,0.00,SCT,,0.00,WeatherDisplay:10.37,2013-10-20 04:46:00,
2013-10-20 00:51:00,42.9,40.5,29.75,WSW,250,9.3,11.5,91,0.00,SCT,,0.00,WeatherDisplay:10.37,2013-10-20 04:51:00,
2013-10-20 00:56:00,43.0,40.6,29.75,WSW,240,10.3,16.1,91,0.00,SCT,,0.00,WeatherDisplay:10.37,2013-10-20 04:56:00,
2013-10-20 01:01:00,42.9,40.2,29.75,SW,222,7.2,11.5,90,0.00,SCT,,0.00,WeatherDisplay:10.37,2013-10-20 05:01:00,
2013-10-20 01:07:00,42.9,40.2,29.75,SW,233,7.5,11.5,90,0.00,SCT,,0.00,WeatherDisplay:10.37,2013-10-20 05:07:00,
2013-10-20 01:12:00,42.9,40.2,29.76,West,259,9.0,11.5,90,0.00,SCT,,0.00,WeatherDisplay:10.37,2013-10-20 05:12:00,
2013-10-20 01:17:00,42.8,40.1,29.76,WSW,250,7.0,9.2,90,0.00,SCT,,0.00,WeatherDisplay:10.37,2013-10-20 05:17:00,
2013-10-20 01:22:00,42.8,40.1,29.76,WSW,242,12.2,16.1,90,0.00,SCT,,0.00,WeatherDisplay:10.37,2013-10-20 05:22:00,
2013-10-20 01:27:00,42.9,39.9,29.76,SW,231,10.3,11.5,89,0.00,SCT,,0.00,WeatherDisplay:10.37,2013-10-20 05:27:00,
2013-10-20 01:32:00,42.9,39.6,29.76,West,259,9.6,15.0,88,0.00,SCT,,0.00,WeatherDisplay:10.37,2013-10-20 05:32:00,
2013-10-20 01:37:00,42.9,39.6,29.76,West,265,11.2,12.7,88,0.00,SCT,,0.00,WeatherDisplay:10.37,2013-10-20 05:37:00,
2013-10-20 01:42:00,42.9,39.6,29.76,WSW,239,10.7,11.5,88,0.00,SCT,,0.00,WeatherDisplay:10.37,2013-10-20 05:42:00,
2013-10-20 01:48:00,42.8,39.5,29.76,SW,229,8.2,12.7,88,0.00,SCT,,0.00,WeatherDisplay:10.37,2013-10-20 05:48:00,
2013-10-20 01:53:00,42.7,39.4,29.76,SW,227,7.9,15.0,88,0.00,SCT,,0.00,WeatherDisplay:10.37,2013-10-20 05:53:00,
2013-10-20 01:58:00,42.7,39.4,29.76,WSW,238,7.0,11.5,88,0.00,SCT,,0.00,WeatherDisplay:10.37,2013-10-20 05:58:00,
2013-10-20 02:03:00,42.5,39.2,29.77,WSW,239,7.1,9.2,88,0.00,SCT,,0.00,WeatherDisplay:10.37,2013-10-20 06:03:00,
2013-10-20 02:08:00,42.4,39.1,29.77,SW,225,5.2,8.1,88,0.00,SCT,,0.00,WeatherDisplay:10.37,2013-10-20 06:08:00,
2013-10-20 02:13:00,42.4,39.1,29.77,SW,225,5.5,9.0,88,0.00,SCT,,0.00,WeatherDisplay:10.37,2013-10-20 06:13:00,
2013-10-20 02:18:00,42.5,38.9,29.78,SSW,212,5.1,6.9,87,0.00,SCT,,0.00,WeatherDisplay:10.37,2013-10-20 06:18:00,
2013-10-20 02:23:00,42.4,38.8,29.78,SSW,213,3.6,4.6,87,0.00,SCT,,0.00,WeatherDisplay:10.37,2013-10-20 06:23:00,
2013-10-20 02:28:00,42.0,38.7,29.78,SW,218,3.1,4.6,88,0.00,SCT,,0.00,WeatherDisplay:10.37,2013-10-20 06:28:00,
2013-10-20 02:33:00,41.7,38.7,29.78,SSW,208,3.5,5.8,89,0.00,SCT,,0.00,WeatherDisplay:10.37,2013-10-20 06:33:00,
2013-10-20 02:38:00,41.5,38.8,29.78,SW,221,5.5,8.1,90,0.00,SCT,,0.00,WeatherDisplay:10.37,2013-10-20 06:38:00,
2013-10-20 02:43:00,41.5,38.8,29.79,SSW,200,4.9,8.1,90,0.00,SCT,,0.00,WeatherDisplay:10.37,2013-10-20 06:43:00,
2013-10-20 02:48:00,41.4,38.7,29.78,SW,217,3.5,5.8,90,0.00,SCT,,0.00,WeatherDisplay:10.37,2013-10-20 06:48:00,
2013-10-20 02:53:00,41.4,38.7,29.79,SSW,208,4.3,5.8,90,0.00,SCT,,0.00,WeatherDisplay:10.37,2013-10-20 06:53:00,
2013-10-20 02:58:00,41.3,38.9,29.79,SW,226,2.7,5.8,91,0.00,SCT,,0.00,WeatherDisplay:10.37,2013-10-20 06:58:00,
2013-10-20 03:03:00,41.2,38.8,29.79,SSW,198,2.6,3.5,91,0.00,SCT,,0.00,WeatherDisplay:10.37,2013-10-20 07:03:00,
2013-10-20 03:08:00,41.1,38.7,29.79,South,188,3.1,4.6,91,0.00,SCT,,0.00,WeatherDisplay:10.37,2013-10-20 07:08:00,
2013-10-20 03:13:00,41.1,38.7,29.79,SSW,204,3.2,4.6,91,0.00,SCT,,0.00,WeatherDisplay:10.37,2013-10-20 07:13:00,
2013-10-20 03:18:00,40.9,38.5,29.79,SW,233,2.4,3.5,91,0.00,SCT,,0.00,WeatherDisplay:10.37,2013-10-20 07:18:00,
2013-10-20 03:23:00,40.8,38.4,29.79,SSW,204,2.2,3.5,91,0.00,SCT,,0.00,WeatherDisplay:10.37,2013-10-20 07:23:00,
2013-10-20 03:28:00,40.7,38.6,29.79,SW,220,2.6,3.5,92,0.00,SCT,,0.00,WeatherDisplay:10.37,2013-10-20 07:28:00,
2013-10-20 03:33:00,40.7,38.6,29.79,SW,228,3.1,5.8,92,0.00,SCT,,0.00,WeatherDisplay:10.37,2013-10-20 07:33:00,
2013-10-20 03:38:00,40.8,38.7,29.79,WSW,253,5.3,8.0,92,0.00,SCT,,0.00,WeatherDisplay:10.37,2013-10-20 07:38:00,
2013-10-20 03:43:00,41.1,39.0,29.79,SW,233,7.8,11.5,92,0.00,SCT,,0.00,WeatherDisplay:10.37,2013-10-20 07:43:00,
2013-10-20 03:48:00,41.4,39.0,29.79,SW,235,5.9,8.1,91,0.00,SCT,,0.00,WeatherDisplay:10.37,2013-10-20 07:48:00,
2013-10-20 03:53:00,41.5,38.8,29.79,SW,230,5.1,6.9,90,0.00,SCT,,0.00,WeatherDisplay:10.37,2013-10-20 07:53:00,
2013-10-20 03:58:00,41.5,38.8,29.79,WSW,245,7.3,9.2,90,0.00,SCT,,0.00,WeatherDisplay:10.37,2013-10-20 07:58:00,
2013-10-20 04:03:00,41.5,38.8,29.79,SW,221,3.5,8.1,90,0.00,SCT,,0.00,WeatherDisplay:10.37,2013-10-20 08:03:00,
2013-10-20 04:09:00,41.5,38.8,29.79,WSW,242,5.2,8.1,90,0.00,SCT,,0.00,WeatherDisplay:10.37,2013-10-20 08:09:00,
2013-10-20 04:14:00,41.4,38.4,29.79,WSW,239,6.0,9.0,89,0.00,SCT,,0.00,WeatherDisplay:10.37,2013-10-20 08:14:00,
2013-10-20 04:19:00,41.3,38.3,29.79,WSW,253,4.4,5.8,89,0.00,SCT,,0.00,WeatherDisplay:10.37,2013-10-20 08:19:00,
2013-10-20 04:24:00,41.3,38.3,29.79,SW,222,1.6,3.5,89,0.00,SCT,,0.00,WeatherDisplay:10.37,2013-10-20 08:24:00,
2013-10-20 04:29:00,41.2,38.2,29.79,SSW,206,1.2,3.5,89,0.00,SCT,,0.00,WeatherDisplay:10.37,2013-10-20 08:29:00,
2013-10-20 04:34:00,41.1,38.1,29.79,SSW,211,2.0,4.6,89,0.00,SCT,,0.00,WeatherDisplay:10.37,2013-10-20 08:34:00,
2013-10-20 04:39:00,40.9,38.2,29.79,SW,224,2.8,3.5,90,0.00,SCT,,0.00,WeatherDisplay:10.37,2013-10-20 08:39:00,
2013-10-20 04:44:00,40.8,38.1,29.80,SSW,208,5.0,7.0,90,0.00,SCT,,0.00,WeatherDisplay:10.37,2013-10-20 08:44:00,
2013-10-20 04:49:00,40.9,38.2,29.80,SW,215,3.0,4.6,90,0.00,SCT,,0.00,WeatherDisplay:10.37,2013-10-20 08:49:00,
2013-10-20 04:54:00,40.9,38.2,29.80,SW,229,6.1,9.2,90,0.00,SCT,,0.00,WeatherDisplay:10.37,2013-10-20 08:54:00,
2013-10-20 04:59:00,41.0,38.3,29.80,SW,224,5.3,9.2,90,0.00,SCT,,0.00,WeatherDisplay:10.37,2013-10-20 08:59:00,
2013-10-20 05:04:00,41.1,38.4,29.80,SW,217,2.3,5.8,90,0.00,SCT,,0.00,WeatherDisplay:10.37,2013-10-20 09:04:00,
2013-10-20 05:09:00,41.1,38.4,29.80,SSW,213,5.4,6.0,90,0.00,SCT,,0.00,WeatherDisplay:10.37,2013-10-20 09:09:00,
2013-10-20 05:14:00,41.1,38.1,29.80,SSW,200,3.7,4.0,89,0.00,SCT,,0.00,WeatherDisplay:10.37,2013-10-20 09:14:00,
2013-10-20 05:19:00,41.0,38.0,29.81,South,179,3.2,3.5,89,0.00,SCT,,0.00,WeatherDisplay:10.37,2013-10-20 09:19:00,
2013-10-20 05:24:00,41.0,38.0,29.81,South,177,2.2,4.6,89,0.00,SCT,,0.00,WeatherDisplay:10.37,2013-10-20 09:24:00,
2013-10-20 05:29:00,40.8,37.8,29.81,WSW,250,2.9,6.0,89,0.00,SCT,,0.00,WeatherDisplay:10.37,2013-10-20 09:29:00,
2013-10-20 05:34:00,40.8,37.8,29.81,SSW,211,3.3,4.6,89,0.00,SCT,,0.00,WeatherDisplay:10.37,2013-10-20 09:34:00,
2013-10-20 05:39:00,40.7,38.0,29.81,SSE,165,3.0,5.8,90,0.00,SCT,,0.00,WeatherDisplay:10.37,2013-10-20 09:39:00,
2013-10-20 05:44:00,40.7,38.0,29.81,SW,222,3.8,5.8,90,0.00,SCT,,0.00,WeatherDisplay:10.37,2013-10-20 09:44:00,
2013-10-20 05:49:00,40.8,37.8,29.81,SW,235,3.8,5.0,89,0.00,SCT,,0.00,WeatherDisplay:10.37,2013-10-20 09:49:00,
2013-10-20 05:54:00,40.8,37.8,29.82,SW,215,3.5,6.9,89,0.00,SCT,,0.00,WeatherDisplay:10.37,2013-10-20 09:54:00,
2013-10-20 05:59:00,40.8,37.8,29.82,SSW,198,1.9,5.8,89,0.00,SCT,,0.00,WeatherDisplay:10.37,2013-10-20 09:59:00,
2013-10-20 06:05:00,40.7,37.7,29.82,SW,214,4.1,5.8,89,0.00,SCT,,0.00,WeatherDisplay:10.37,2013-10-20 10:05:00,
2013-10-20 06:10:00,40.7,37.7,29.82,SW,229,6.0,7.0,89,0.00,SCT,,0.00,WeatherDisplay:10.37,2013-10-20 10:10:00,
2013-10-20 06:15:00,40.6,37.6,29.82,WSW,238,2.0,8.0,89,0.00,SCT,,0.00,WeatherDisplay:10.37,2013-10-20 10:15:00,
2013-10-20 06:20:00,40.4,37.4,29.82,WSW,245,5.1,9.2,89,0.00,SCT,,0.00,WeatherDisplay:10.37,2013-10-20 10:20:00,
2013-10-20 06:25:00,40.5,37.5,29.82,WNW,283,4.3,5.8,89,0.00,SCT,,0.00,WeatherDisplay:10.37,2013-10-20 10:25:00,
2013-10-20 06:30:00,40.7,37.4,29.82,West,281,3.3,5.8,88,0.00,SCT,,0.00,WeatherDisplay:10.37,2013-10-20 10:30:00,
2013-10-20 06:35:00,40.9,37.6,29.82,West,259,3.0,9.0,88,0.00,SCT,,0.00,WeatherDisplay:10.37,2013-10-20 10:35:00,
2013-10-20 06:40:00,41.0,37.4,29.82,West,266,3.0,7.0,87,0.00,SCT,,0.00,WeatherDisplay:10.37,2013-10-20 10:40:00,
2013-10-20 06:45:00,41.1,37.5,29.82,WNW,295,2.6,4.6,87,0.00,SCT,,0.00,WeatherDisplay:10.37,2013-10-20 10:45:00,
2013-10-20 06:50:00,41.2,37.3,29.82,SW,235,3.5,4.6,86,0.00,SCT,,0.00,WeatherDisplay:10.37,2013-10-20 10:50:00,
2013-10-20 06:55:00,40.9,37.3,29.82,SW,224,1.8,3.5,87,0.00,SCT,,0.00,WeatherDisplay:10.37,2013-10-20 10:55:00,
2013-10-20 07:00:00,40.7,37.1,29.82,SSE,150,2.3,3.5,87,0.00,SCT,,0.00,WeatherDisplay:10.37,2013-10-20 11:00:00,
2013-10-20 07:05:00,40.6,37.3,29.82,SW,222,0.5,1.2,88,0.00,SCT,,0.00,WeatherDisplay:10.37,2013-10-20 11:05:00,
2013-10-20 07:10:00,40.3,37.0,29.82,WSW,245,1.3,2.3,88,0.00,SCT,,0.00,WeatherDisplay:10.37,2013-10-20 11:10:00,
2013-10-20 07:15:00,40.0,36.7,29.83,SSW,203,1.0,2.3,88,0.00,SCT,,0.00,WeatherDisplay:10.37,2013-10-20 11:15:00,
2013-10-20 07:20:00,40.0,37.0,29.83,SW,236,2.4,3.5,89,0.00,SCT,,0.00,WeatherDisplay:10.37,2013-10-20 11:20:00,
2013-10-20 07:25:00,40.0,37.0,29.83,South,169,2.4,4.6,89,0.00,SCT,,0.00,WeatherDisplay:10.37,2013-10-20 11:25:00,
2013-10-20 07:30:00,39.9,36.9,29.83,South,186,1.6,3.5,89,0.00,SCT,,0.00,WeatherDisplay:10.37,2013-10-20 11:30:00,
2013-10-20 07:35:00,39.9,36.9,29.83,SSW,195,2.2,3.5,89,0.00,SCT,,0.00,WeatherDisplay:10.37,2013-10-20 11:35:00,
2013-10-20 07:40:00,39.9,36.9,29.83,South,188,2.4,3.5,89,0.00,SCT,,0.00,WeatherDisplay:10.37,2013-10-20 11:40:00,
2013-10-20 07:45:00,39.9,36.9,29.83,SW,214,0.4,1.2,89,0.00,SCT,,0.00,WeatherDisplay:10.37,2013-10-20 11:45:00,
2013-10-20 07:50:00,39.9,36.9,29.84,SSW,204,1.2,3.0,89,0.00,SCT,,0.00,WeatherDisplay:10.37,2013-10-20 11:50:00,
2013-10-20 07:55:00,39.9,36.9,29.84,SW,224,0.6,3.5,89,0.00,SCT,,0.00,WeatherDisplay:10.37,2013-10-20 11:55:00,
2013-10-20 08:00:00,39.9,36.9,29.84,SSW,210,0.9,2.3,89,0.00,SCT,,0.00,WeatherDisplay:10.37,2013-10-20 12:00:00,
2013-10-20 08:05:00,39.8,36.8,29.84,SW,231,0.8,2.3,89,0.00,BKN,,0.00,WeatherDisplay:10.37,2013-10-20 12:05:00,
2013-10-20 08:10:00,39.8,37.1,29.84,SSW,193,1.2,3.5,90,0.00,BKN,,0.00,WeatherDisplay:10.37,2013-10-20 12:10:00,
2013-10-20 08:15:00,39.9,37.2,29.85,SSW,200,1.5,2.3,90,0.00,BKN,,0.00,WeatherDisplay:10.37,2013-10-20 12:15:00,
2013-10-20 08:20:00,40.0,37.3,29.85,SSW,195,2.5,3.5,90,0.00,BKN,,0.00,WeatherDisplay:10.37,2013-10-20 12:20:00,
2013-10-20 08:25:00,40.2,37.5,29.85,SSW,207,1.9,3.5,90,0.00,BKN,,0.00,WeatherDisplay:10.37,2013-10-20 12:25:00,
2013-10-20 08:30:00,40.4,37.7,29.85,SW,217,1.5,3.5,90,0.00,BKN,,0.00,WeatherDisplay:10.37,2013-10-20 12:30:00,
2013-10-20 08:35:00,40.8,38.1,29.86,SSW,197,4.5,6.9,90,0.00,BKN,,0.00,WeatherDisplay:10.37,2013-10-20 12:35:00,
2013-10-20 08:40:00,41.3,38.3,29.86,SW,218,3.6,8.1,89,0.00,BKN,,0.00,WeatherDisplay:10.37,2013-10-20 12:40:00,
2013-10-20 08:45:00,41.6,38.6,29.86,South,184,1.7,3.5,89,0.00,BKN,,0.00,WeatherDisplay:10.37,2013-10-20 12:45:00,
2013-10-20 08:50:00,41.8,38.5,29.86,South,190,2.8,5.8,88,0.00,BKN,,0.00,WeatherDisplay:10.37,2013-10-20 12:50:00,
2013-10-20 08:55:00,42.3,39.0,29.87,South,176,2.6,4.0,88,0.00,BKN,,0.00,WeatherDisplay:10.37,2013-10-20 12:55:00,
2013-10-20 09:00:00,42.5,38.9,29.87,SW,233,2.5,4.6,87,0.00,BKN,,0.00,WeatherDisplay:10.37,2013-10-20 13:00:00,
2013-10-20 09:05:00,42.7,39.4,29.87,South,179,2.6,4.6,88,0.00,BKN,,0.00,WeatherDisplay:10.37,2013-10-20 13:05:00,
2013-10-20 09:10:00,43.1,39.5,29.87,SSW,211,3.6,5.8,87,0.00,BKN,,0.00,WeatherDisplay:10.37,2013-10-20 13:10:00,
2013-10-20 09:16:00,43.3,39.4,29.87,SSW,212,5.3,8.0,86,0.00,BKN,,0.00,WeatherDisplay:10.37,2013-10-20 13:16:00,
2013-10-20 09:21:00,43.6,39.7,29.87,SSW,208,3.2,4.0,86,0.00,BKN,,0.00,WeatherDisplay:10.37,2013-10-20 13:21:00,
2013-10-20 09:26:00,44.0,40.1,29.88,SW,228,4.0,6.9,86,0.00,BKN,,0.00,WeatherDisplay:10.37,2013-10-20 13:26:00,
2013-10-20 09:31:00,44.1,39.9,29.87,WSW,242,8.1,11.5,85,0.00,BKN,,0.00,WeatherDisplay:10.37,2013-10-20 13:31:00,
2013-10-20 09:36:00,44.4,40.2,29.88,SW,236,9.9,13.8,85,0.00,BKN,,0.00,WeatherDisplay:10.37,2013-10-20 13:36:00,
2013-10-20 09:41:00,44.7,40.5,29.87,WSW,240,7.4,11.5,85,0.00,BKN,,0.00,WeatherDisplay:10.37,2013-10-20 13:41:00,
2013-10-20 09:46:00,45.1,40.9,29.87,SSW,206,6.1,9.2,85,0.00,BKN,,0.00,WeatherDisplay:10.37,2013-10-20 13:46:00,
2013-10-20 09:51:00,45.4,40.8,29.88,WSW,250,9.0,11.5,84,0.00,BKN,,0.00,WeatherDisplay:10.37,2013-10-20 13:51:00,
2013-10-20 09:56:00,45.6,40.7,29.88,SSW,210,5.7,9.2,83,0.00,BKN,,0.00,WeatherDisplay:10.37,2013-10-20 13:56:00,
2013-10-20 10:01:00,46.0,41.1,29.88,WSW,242,6.3,10.4,83,0.00,CLR,,0.00,WeatherDisplay:10.37,2013-10-20 14:01:00,
2013-10-20 10:06:00,46.4,41.5,29.88,WSW,257,8.9,11.5,83,0.00,CLR,,0.00,WeatherDisplay:10.37,2013-10-20 14:06:00,
2013-10-20 10:11:00,46.7,42.1,29.88,WSW,243,4.8,5.8,84,0.00,CLR,,0.00,WeatherDisplay:10.37,2013-10-20 14:11:00,
2013-10-20 10:16:00,47.0,41.8,29.88,WSW,243,6.7,9.2,82,0.00,CLR,,0.00,WeatherDisplay:10.37,2013-10-20 14:16:00,
2013-10-20 10:21:00,47.3,42.1,29.88,SW,226,5.1,9.2,82,0.00,CLR,,0.00,WeatherDisplay:10.37,2013-10-20 14:21:00,
2013-10-20 10:26:00,47.5,41.6,29.88,WSW,248,7.0,8.1,80,0.00,CLR,,0.00,WeatherDisplay:10.37,2013-10-20 14:26:00,
2013-10-20 10:31:00,47.8,42.3,29.88,SW,218,4.8,7.0,81,0.00,CLR,,0.00,WeatherDisplay:10.37,2013-10-20 14:31:00,
2013-10-20 10:36:00,48.2,42.0,29.88,SW,233,5.0,6.9,79,0.00,CLR,,0.00,WeatherDisplay:10.37,2013-10-20 14:36:00,
2013-10-20 10:41:00,48.7,42.1,29.88,SW,233,7.9,10.4,78,0.00,CLR,,0.00,WeatherDisplay:10.37,2013-10-20 14:41:00,
2013-10-20 10:46:00,48.9,42.3,29.88,WSW,257,5.9,8.1,78,0.00,CLR,,0.00,WeatherDisplay:10.37,2013-10-20 14:46:00,
2013-10-20 10:51:00,49.2,42.3,29.88,SW,231,9.6,11.5,77,0.00,CLR,,0.00,WeatherDisplay:10.37,2013-10-20 14:51:00,
2013-10-20 10:56:00,49.5,42.6,29.88,SW,216,10.6,12.7,77,0.00,CLR,,0.00,WeatherDisplay:10.37,2013-10-20 14:56:00,
2013-10-20 11:01:00,49.7,42.4,29.88,SW,232,6.6,8.1,76,0.00,BKN,,0.00,WeatherDisplay:10.37,2013-10-20 15:01:00,
2013-10-20 11:06:00,49.9,42.3,29.88,WSW,252,5.2,5.8,75,0.00,BKN,,0.00,WeatherDisplay:10.37,2013-10-20 15:06:00,
2013-10-20 11:11:00,50.3,43.0,29.89,WSW,248,8.6,11.5,76,0.00,BKN,,0.00,WeatherDisplay:10.37,2013-10-20 15:11:00,
2013-10-20 11:16:00,50.4,42.8,29.89,SW,220,8.4,12.0,75,0.00,BKN,,0.00,WeatherDisplay:10.37,2013-10-20 15:16:00,
2013-10-20 11:21:00,50.4,42.1,29.89,SW,227,10.7,12.7,73,0.00,BKN,,0.00,WeatherDisplay:10.37,2013-10-20 15:21:00,
2013-10-20 11:26:00,50.4,42.1,29.89,WSW,240,11.4,15.0,73,0.00,BKN,,0.00,WeatherDisplay:10.37,2013-10-20 15:26:00,
2013-10-20 11:31:00,50.6,43.0,29.89,WSW,252,6.8,11.5,75,0.00,BKN,,0.00,WeatherDisplay:10.37,2013-10-20 15:31:00,
2013-10-20 11:36:00,51.2,42.8,29.89,SW,231,6.6,11.5,73,0.00,BKN,,0.00,WeatherDisplay:10.37,2013-10-20 15:36:00,
2013-10-20 11:41:00,51.6,42.5,29.89,West,281,7.5,11.5,71,0.00,BKN,,0.00,WeatherDisplay:10.37,2013-10-20 15:41:00,
2013-10-20 11:46:00,51.5,42.4,29.89,SW,232,9.0,13.8,71,0.00,BKN,,0.00,WeatherDisplay:10.37,2013-10-20 15:46:00,
2013-10-20 11:51:00,51.4,42.3,29.89,West,272,11.1,15.0,71,0.00,BKN,,0.00,WeatherDisplay:10.37,2013-10-20 15:51:00,
2013-10-20 11:56:00,51.5,43.1,29.89,WSW,250,8.0,10.4,73,0.00,BKN,,0.00,WeatherDisplay:10.37,2013-10-20 15:56:00,
2013-10-20 12:01:00,51.8,41.9,29.89,WSW,240,8.9,17.0,69,0.00,SCT,,0.00,WeatherDisplay:10.37,2013-10-20 16:01:00,
2013-10-20 12:06:00,51.8,42.3,29.89,West,259,5.7,10.4,70,0.00,SCT,,0.00,WeatherDisplay:10.37,2013-10-20 16:06:00,
2013-10-20 12:11:00,52.3,42.8,29.90,WSW,252,6.0,11.5,70,0.00,SCT,,0.00,WeatherDisplay:10.37,2013-10-20 16:11:00,
2013-10-20 12:16:00,52.5,42.2,29.89,WNW,295,6.6,9.2,68,0.00,SCT,,0.00,WeatherDisplay:10.37,2013-10-20 16:16:00,
2013-10-20 12:21:00,52.2,41.2,29.90,WSW,249,7.7,12.7,66,0.00,SCT,,0.00,WeatherDisplay:10.37,2013-10-20 16:21:00,
2013-10-20 12:26:00,51.5,41.3,29.90,WSW,254,9.1,13.8,68,0.00,SCT,,0.00,WeatherDisplay:10.37,2013-10-20 16:26:00,
2013-10-20 12:31:00,51.0,40.8,29.90,SW,229,5.3,10.4,68,0.00,SCT,,0.00,WeatherDisplay:10.37,2013-10-20 16:31:00,
2013-10-20 12:36:00,51.3,41.8,29.90,SW,226,9.7,11.5,70,0.00,SCT,,0.00,WeatherDisplay:10.37,2013-10-20 16:36:00,
2013-10-20 12:41:00,51.5,42.4,29.89,WSW,252,7.0,10.4,71,0.00,SCT,,0.00,WeatherDisplay:10.37,2013-10-20 16:41:00,
2013-10-20 12:46:00,51.7,41.5,29.89,SW,217,5.5,8.1,68,0.00,SCT,,0.00,WeatherDisplay:10.37,2013-10-20 16:46:00,
2013-10-20 12:51:00,51.9,41.7,29.89,SW,229,7.5,11.5,68,0.00,SCT,,0.00,WeatherDisplay:10.37,2013-10-20 16:51:00,
2013-10-20 12:56:00,51.7,41.9,29.89,SW,236,4.1,8.1,69,0.00,SCT,,0.00,WeatherDisplay:10.37,2013-10-20 16:56:00,
2013-10-20 13:01:00,51.8,42.3,29.89,SW,222,4.5,6.9,70,0.00,BKN,,0.00,WeatherDisplay:10.37,2013-10-20 17:01:00,
2013-10-20 13:06:00,52.0,41.4,29.89,SW,230,10.7,11.5,67,0.00,BKN,,0.00,WeatherDisplay:10.37,2013-10-20 17:06:00,
2013-10-20 13:11:00,52.2,42.3,29.89,WSW,256,7.9,11.5,69,0.00,BKN,,0.00,WeatherDisplay:10.37,2013-10-20 17:11:00,
2013-10-20 13:16:00,52.5,41.9,29.89,SW,214,8.6,11.5,67,0.00,BKN,,0.00,WeatherDisplay:10.37,2013-10-20 17:16:00,
2013-10-20 13:21:00,52.9,42.2,29.89,NW,304,8.4,11.5,67,0.00,BKN,,0.00,WeatherDisplay:10.37,2013-10-20 17:21:00,
2013-10-20 13:26:00,52.9,41.8,29.89,WSW,256,8.7,11.5,66,0.00,BKN,,0.00,WeatherDisplay:10.37,2013-10-20 17:26:00,
2013-10-20 13:31:00,52.9,41.4,29.89,SW,226,7.0,9.2,65,0.00,BKN,,0.00,WeatherDisplay:10.37,2013-10-20 17:31:00,
2013-10-20 13:36:00,52.9,41.8,29.89,SW,217,6.3,8.1,66,0.00,BKN,,0.00,WeatherDisplay:10.37,2013-10-20 17:36:00,
2013-10-20 13:41:00,53.3,41.4,29.88,SW,228,7.9,11.5,64,0.00,BKN,,0.00,WeatherDisplay:10.37,2013-10-20 17:41:00,
2013-10-20 13:46:00,54.0,43.3,29.88,SW,218,3.3,5.0,67,0.00,BKN,,0.00,WeatherDisplay:10.37,2013-10-20 17:46:00,
2013-10-20 13:51:00,54.6,44.2,29.89,SSW,193,4.7,6.9,68,0.00,BKN,,0.00,WeatherDisplay:10.37,2013-10-20 17:51:00,
2013-10-20 13:56:00,54.5,44.2,29.88,SSE,160,3.4,5.0,68,0.00,BKN,,0.00,WeatherDisplay:10.37,2013-10-20 17:56:00,
2013-10-20 14:01:00,54.0,44.1,29.89,SSW,203,3.9,10.4,69,0.00,BKN,,0.00,WeatherDisplay:10.37,2013-10-20 18:01:00,
2013-10-20 14:06:00,53.5,44.7,29.89,SSE,167,5.4,10.4,72,0.00,BKN,,0.00,WeatherDisplay:10.37,2013-10-20 18:06:00,
2013-10-20 14:11:00,53.2,45.1,29.89,SSW,208,3.3,3.5,74,0.00,BKN,,0.00,WeatherDisplay:10.37,2013-10-20 18:11:00,
2013-10-20 14:16:00,53.0,44.9,29.89,SSW,206,4.2,6.9,74,0.00,BKN,,0.00,WeatherDisplay:10.37,2013-10-20 18:16:00,
2013-10-20 14:21:00,53.1,45.7,29.89,SSW,200,1.8,7.0,76,0.00,BKN,,0.00,WeatherDisplay:10.37,2013-10-20 18:21:00,
2013-10-20 14:26:00,53.2,45.1,29.89,SSW,212,5.5,8.1,74,0.00,BKN,,0.00,WeatherDisplay:10.37,2013-10-20 18:26:00,
2013-10-20 14:31:00,53.4,44.6,29.89,SSE,161,5.2,6.9,72,0.00,BKN,,0.00,WeatherDisplay:10.37,2013-10-20 18:31:00,
2013-10-20 14:36:00,53.4,44.6,29.89,SSE,150,5.2,9.2,72,0.00,BKN,,0.00,WeatherDisplay:10.37,2013-10-20 18:36:00,
2013-10-20 14:42:00,53.0,44.9,29.89,SW,221,2.6,6.9,74,0.00,BKN,,0.00,WeatherDisplay:10.37,2013-10-20 18:42:00,
2013-10-20 14:47:00,52.8,45.1,29.89,South,191,4.0,4.0,75,0.00,BKN,,0.00,WeatherDisplay:10.37,2013-10-20 18:47:00,
2013-10-20 14:52:00,52.6,45.6,29.89,SW,217,2.2,3.5,77,0.00,BKN,,0.00,WeatherDisplay:10.37,2013-10-20 18:52:00,
2013-10-20 14:57:00,52.5,45.8,29.89,South,176,2.7,5.8,78,0.00,BKN,,0.00,WeatherDisplay:10.37,2013-10-20 18:57:00,
2013-10-20 15:02:00,52.3,46.0,29.89,South,186,2.4,3.5,79,0.00,-RA,,0.00,WeatherDisplay:10.37,2013-10-20 19:02:00,
2013-10-20 15:07:00,52.1,45.8,29.89,SSW,200,5.4,9.2,79,0.00,-RA,,0.00,WeatherDisplay:10.37,2013-10-20 19:07:00,
2013-10-20 15:12:00,51.9,45.6,29.89,SW,226,2.7,4.6,79,0.00,-RA,,0.00,WeatherDisplay:10.37,2013-10-20 19:12:00,
2013-10-20 15:17:00,52.0,46.0,29.89,South,190,4.3,5.8,80,0.00,-RA,,0.00,WeatherDisplay:10.37,2013-10-20 19:17:00,
2013-10-20 15:22:00,52.0,46.0,29.89,SSE,167,2.7,4.6,80,0.00,-RA,,0.00,WeatherDisplay:10.37,2013-10-20 19:22:00,
2013-10-20 15:27:00,52.0,46.0,29.90,SE,143,2.9,5.8,80,0.00,-RA,,0.00,WeatherDisplay:10.37,2013-10-20 19:27:00,
2013-10-20 15:32:00,52.0,46.0,29.89,SSE,162,4.4,6.9,80,0.00,-RA,,0.00,WeatherDisplay:10.37,2013-10-20 19:32:00,
2013-10-20 15:37:00,51.9,45.9,29.89,SSW,195,2.1,4.6,80,0.00,-RA,,0.00,WeatherDisplay:10.37,2013-10-20 19:37:00,
2013-10-20 15:42:00,51.9,45.9,29.89,SSE,152,2.5,6.0,80,0.00,-RA,,0.00,WeatherDisplay:10.37,2013-10-20 19:42:00,
2013-10-20 15:47:00,51.8,45.8,29.90,SW,223,3.7,5.8,80,0.00,-RA,,0.00,WeatherDisplay:10.37,2013-10-20 19:47:00,
2013-10-20 15:52:00,51.7,45.7,29.90,SSE,153,4.9,9.2,80,0.00,-RA,,0.00,WeatherDisplay:10.37,2013-10-20 19:52:00,
2013-10-20 15:57:00,51.6,46.0,29.90,SSE,154,3.3,5.8,81,0.00,-RA,,0.00,WeatherDisplay:10.37,2013-10-20 19:57:00,
2013-10-20 16:02:00,51.4,45.8,29.90,SW,226,4.4,8.0,81,0.00,-RA,,0.00,WeatherDisplay:10.37,2013-10-20 20:02:00,
2013-10-20 16:07:00,51.3,45.7,29.90,SW,223,3.4,8.1,81,0.00,-RA,,0.00,WeatherDisplay:10.37,2013-10-20 20:07:00,
2013-10-20 16:12:00,51.2,45.9,29.90,SW,214,5.7,9.2,82,0.00,-RA,,0.00,WeatherDisplay:10.37,2013-10-20 20:12:00,
2013-10-20 16:17:00,51.0,45.7,29.90,South,188,7.7,9.2,82,0.00,-RA,,0.00,WeatherDisplay:10.37,2013-10-20 20:17:00,
2013-10-20 16:22:00,50.9,45.6,29.90,SSE,153,6.2,10.4,82,0.00,-RA,,0.00,WeatherDisplay:10.37,2013-10-20 20:22:00,
2013-10-20 16:27:00,50.8,45.5,29.91,SE,145,2.6,6.0,82,0.00,-RA,,0.00,WeatherDisplay:10.37,2013-10-20 20:27:00,
2013-10-20 16:32:00,50.7,45.4,29.91,SSW,203,3.3,8.1,82,0.00,-RA,,0.00,WeatherDisplay:10.37,2013-10-20 20:32:00,
2013-10-20 16:37:00,50.7,45.1,29.91,SSW,210,3.8,6.9,81,0.00,-RA,,0.00,WeatherDisplay:10.37,2013-10-20 20:37:00,
2013-10-20 16:42:00,50.6,45.3,29.91,SSW,211,1.0,2.3,82,0.00,-RA,,0.00,WeatherDisplay:10.37,2013-10-20 20:42:00,
2013-10-20 16:47:00,50.6,45.3,29.91,South,179,2.4,3.5,82,0.00,-RA,,0.00,WeatherDisplay:10.37,2013-10-20 20:47:00,
2013-10-20 16:52:00,50.6,45.3,29.91,SSE,159,3.0,7.0,82,0.00,-RA,,0.00,WeatherDisplay:10.37,2013-10-20 20:52:00,
2013-10-20 16:57:00,50.6,45.3,29.91,SSW,199,2.3,4.6,82,0.00,-RA,,0.00,WeatherDisplay:10.37,2013-10-20 20:57:00,
2013-10-20 17:02:00,50.6,45.3,29.91,South,170,3.2,3.5,82,0.00,OVC,,0.00,WeatherDisplay:10.37,2013-10-20 21:02:00,
2013-10-20 17:07:00,50.6,45.3,29.91,SSE,153,1.7,3.5,82,0.00,OVC,,0.00,WeatherDisplay:10.37,2013-10-20 21:07:00,
2013-10-20 17:13:00,50.6,45.3,29.92,South,188,1.2,3.5,82,0.00,OVC,,0.00,WeatherDisplay:10.37,2013-10-20 21:13:00,
2013-10-20 17:18:00,50.6,45.3,29.92,SSW,198,1.4,3.5,82,0.00,OVC,,0.00,WeatherDisplay:10.37,2013-10-20 21:18:00,
2013-10-20 17:23:00,50.6,45.6,29.92,South,174,1.5,3.5,83,0.00,OVC,,0.00,WeatherDisplay:10.37,2013-10-20 21:23:00,
2013-10-20 17:28:00,50.4,45.4,29.92,SSE,155,2.3,5.8,83,0.00,OVC,,0.00,WeatherDisplay:10.37,2013-10-20 21:28:00,
2013-10-20 17:33:00,50.4,45.7,29.92,SSE,156,1.5,3.5,84,0.00,OVC,,0.00,WeatherDisplay:10.37,2013-10-20 21:33:00,
2013-10-20 17:38:00,50.2,45.9,29.92,SSE,166,1.5,6.0,85,0.00,OVC,,0.00,WeatherDisplay:10.37,2013-10-20 21:38:00,
2013-10-20 17:43:00,50.0,45.7,29.92,West,276,3.2,9.2,85,0.00,OVC,,0.00,WeatherDisplay:10.37,2013-10-20 21:43:00,
2013-10-20 17:48:00,49.9,45.6,29.92,South,190,4.6,6.9,85,0.00,OVC,,0.00,WeatherDisplay:10.37,2013-10-20 21:48:00,
2013-10-20 17:53:00,49.8,45.5,29.92,South,189,3.0,5.8,85,0.00,OVC,,0.00,WeatherDisplay:10.37,2013-10-20 21:53:00,
2013-10-20 17:58:00,49.7,45.7,29.92,South,181,1.8,5.8,86,0.00,OVC,,0.00,WeatherDisplay:10.37,2013-10-20 21:58:00,
2013-10-20 18:03:00,49.5,45.5,29.92,SSW,201,2.5,4.6,86,0.00,BKN,,0.00,WeatherDisplay:10.37,2013-10-20 22:03:00,
2013-10-20 18:08:00,49.3,45.6,29.92,SE,144,4.6,8.1,87,0.00,BKN,,0.00,WeatherDisplay:10.37,2013-10-20 22:08:00,
2013-10-20 18:13:00,49.3,45.6,29.93,SSW,203,1.2,3.5,87,0.00,BKN,,0.00,WeatherDisplay:10.37,2013-10-20 22:13:00,
2013-10-20 18:18:00,49.2,45.5,29.93,South,179,0.7,2.0,87,0.00,BKN,,0.00,WeatherDisplay:10.37,2013-10-20 22:18:00,
2013-10-20 18:23:00,49.1,45.4,29.93,SSW,204,0.5,1.0,87,0.00,BKN,,0.00,WeatherDisplay:10.37,2013-10-20 22:23:00,
2013-10-20 18:28:00,49.0,45.3,29.93,SSE,150,2.6,3.5,87,0.00,BKN,,0.00,WeatherDisplay:10.37,2013-10-20 22:28:00,
2013-10-20 18:33:00,49.0,45.3,29.93,SSE,149,2.0,3.5,87,0.00,BKN,,0.00,WeatherDisplay:10.37,2013-10-20 22:33:00,
2013-10-20 18:38:00,48.9,45.5,29.93,SSE,160,1.2,3.0,88,0.00,BKN,,0.00,WeatherDisplay:10.37,2013-10-20 22:38:00,
2013-10-20 18:43:00,48.7,45.3,29.93,SSE,158,1.1,3.5,88,0.00,BKN,,0.00,WeatherDisplay:10.37,2013-10-20 22:43:00,
2013-10-20 18:48:00,48.4,45.0,29.93,South,169,1.0,2.3,88,0.00,BKN,,0.00,WeatherDisplay:10.37,2013-10-20 22:48:00,
2013-10-20 18:53:00,48.1,44.7,29.93,SSE,152,0.0,0.0,88,0.00,BKN,,0.00,WeatherDisplay:10.37,2013-10-20 22:53:00,
2013-10-20 18:58:00,47.7,44.3,29.93,SSE,156,0.0,0.0,88,0.00,BKN,,0.00,WeatherDisplay:10.37,2013-10-20 22:58:00,
2013-10-20 19:03:00,47.5,44.4,29.93,SSE,156,0.0,0.0,89,0.00,-RA,,0.00,WeatherDisplay:10.37,2013-10-20 23:03:00,
2013-10-20 19:08:00,47.4,44.3,29.93,SSE,156,0.0,0.0,89,0.00,-RA,,0.00,WeatherDisplay:10.37,2013-10-20 23:08:00,
2013-10-20 19:13:00,47.3,44.2,29.93,SSE,156,0.0,0.0,89,0.00,-RA,,0.00,WeatherDisplay:10.37,2013-10-20 23:13:00,
2013-10-20 19:18:00,47.2,44.4,29.93,SSE,156,0.0,0.0,90,0.00,-RA,,0.00,WeatherDisplay:10.37,2013-10-20 23:18:00,
2013-10-20 19:23:00,47.2,44.4,29.93,SSE,156,0.0,0.0,90,0.00,-RA,,0.00,WeatherDisplay:10.37,2013-10-20 23:23:00,
2013-10-20 19:28:00,47.1,44.3,29.94,SSE,156,0.0,0.0,90,0.00,-RA,,0.00,WeatherDisplay:10.37,2013-10-20 23:28:00,
2013-10-20 19:33:00,47.2,44.4,29.94,SSE,156,0.0,0.0,90,0.00,-RA,,0.00,WeatherDisplay:10.37,2013-10-20 23:33:00,
2013-10-20 19:38:00,47.2,44.4,29.94,SSE,156,0.0,0.0,90,0.00,-RA,,0.00,WeatherDisplay:10.37,2013-10-20 23:38:00,
2013-10-20 19:43:00,47.3,44.5,29.94,WSW,238,0.3,2.0,90,0.00,-RA,,0.00,WeatherDisplay:10.37,2013-10-20 23:43:00,
2013-10-20 19:48:00,47.5,44.7,29.94,South,174,1.3,3.5,90,0.00,-RA,,0.00,WeatherDisplay:10.37,2013-10-20 23:48:00,
2013-10-20 19:53:00,47.8,44.7,29.94,SW,214,0.0,1.2,89,0.00,-RA,,0.00,WeatherDisplay:10.37,2013-10-20 23:53:00,
2013-10-20 19:58:00,47.9,44.8,29.94,SW,226,0.4,1.2,89,0.00,-RA,,0.00,WeatherDisplay:10.37,2013-10-20 23:58:00,
2013-10-20 20:03:00,47.9,44.8,29.94,SW,226,0.0,0.0,89,0.00,BKN,,0.00,WeatherDisplay:10.37,2013-10-21 00:03:00,
2013-10-20 20:08:00,47.9,44.8,29.94,West,263,0.4,1.2,89,0.00,BKN,,0.00,WeatherDisplay:10.37,2013-10-21 00:08:00,
2013-10-20 20:13:00,48.0,44.6,29.94,West,263,0.0,0.0,88,0.00,BKN,,0.00,WeatherDisplay:10.37,2013-10-21 00:13:00,
2013-10-20 20:18:00,47.9,44.5,29.94,West,262,0.0,0.0,88,0.00,BKN,,0.00,WeatherDisplay:10.37,2013-10-21 00:18:00,
2013-10-20 20:23:00,47.8,44.4,29.94,West,262,0.4,1.2,88,0.00,BKN,,0.00,WeatherDisplay:10.37,2013-10-21 00:23:00,
2013-10-20 20:28:00,47.8,44.7,29.94,West,263,0.1,1.0,89,0.00,BKN,,0.00,WeatherDisplay:10.37,2013-10-21 00:28:00,
2013-10-20 20:33:00,47.8,44.7,29.94,SW,214,0.0,1.2,89,0.00,BKN,,0.00,WeatherDisplay:10.37,2013-10-21 00:33:00,
2013-10-20 20:38:00,47.8,45.0,29.94,South,191,0.5,1.2,90,0.00,BKN,,0.00,WeatherDisplay:10.37,2013-10-21 00:38:00,
2013-10-20 20:43:00,47.9,45.1,29.95,SW,224,0.5,1.0,90,0.00,BKN,,0.00,WeatherDisplay:10.37,2013-10-21 00:43:00,
2013-10-20 20:48:00,48.0,45.2,29.95,South,181,1.1,2.0,90,0.00,BKN,,0.00,WeatherDisplay:10.37,2013-10-21 00:48:00,
2013-10-20 20:53:00,48.1,45.0,29.95,SSW,200,1.2,2.3,89,0.00,BKN,,0.00,WeatherDisplay:10.37,2013-10-21 00:53:00,
2013-10-20 20:58:00,48.1,45.0,29.95,SSE,158,1.5,2.3,89,0.00,BKN,,0.00,WeatherDisplay:10.37,2013-10-21 00:58:00,
2013-10-20 21:03:00,48.1,44.7,29.95,SSE,149,1.5,2.3,88,0.00,BKN,,0.00,WeatherDisplay:10.37,2013-10-21 01:03:00,
2013-10-20 21:08:00,48.0,44.6,29.95,SSE,149,0.5,1.2,88,0.00,BKN,,0.00,WeatherDisplay:10.37,2013-10-21 01:08:00,
2013-10-20 21:14:00,47.7,44.3,29.95,SSE,149,0.0,0.0,88,0.00,BKN,,0.00,WeatherDisplay:10.37,2013-10-21 01:14:00,
2013-10-20 21:19:00,47.3,43.9,29.95,South,179,0.7,2.3,88,0.00,BKN,,0.00,WeatherDisplay:10.37,2013-10-21 01:19:00,
2013-10-20 21:24:00,47.1,44.0,29.95,South,181,0.0,0.0,89,0.00,BKN,,0.00,WeatherDisplay:10.37,2013-10-21 01:24:00,
2013-10-20 21:29:00,46.8,43.7,29.95,South,186,0.4,1.2,89,0.00,BKN,,0.00,WeatherDisplay:10.37,2013-10-21 01:29:00,
2013-10-20 21:34:00,46.6,43.8,29.95,SSW,208,0.2,1.2,90,0.00,BKN,,0.00,WeatherDisplay:10.37,2013-10-21 01:34:00,
2013-10-20 21:39:00,46.4,43.6,29.95,SSW,204,0.0,0.0,90,0.00,BKN,,0.00,WeatherDisplay:10.37,2013-10-21 01:39:00,
2013-10-20 21:44:00,46.1,43.3,29.96,SSW,204,0.0,0.0,90,0.00,BKN,,0.00,WeatherDisplay:10.37,2013-10-21 01:44:00,
2013-10-20 21:49:00,45.6,42.8,29.96,SSW,204,0.0,0.0,90,0.00,BKN,,0.00,WeatherDisplay:10.37,2013-10-21 01:49:00,
2013-10-20 21:54:00,45.2,42.7,29.96,SSW,204,0.0,0.0,91,0.00,BKN,,0.00,WeatherDisplay:10.37,2013-10-21 01:54:00,
2013-10-20 21:59:00,44.9,42.4,29.96,SSW,204,0.0,0.0,91,0.00,BKN,,0.00,WeatherDisplay:10.37,2013-10-21 01:59:00,
2013-10-20 22:04:00,44.7,42.2,29.96,SSW,204,0.0,0.0,91,0.00,SCT,,0.00,WeatherDisplay:10.37,2013-10-21 02:04:00,
2013-10-20 22:09:00,44.5,42.3,29.96,SSW,204,0.0,0.0,92,0.00,SCT,,0.00,WeatherDisplay:10.37,2013-10-21 02:09:00,
2013-10-20 22:14:00,44.4,42.2,29.95,SSW,204,0.0,0.0,92,0.00,SCT,,0.00,WeatherDisplay:10.37,2013-10-21 02:14:00,
2013-10-20 22:19:00,44.2,42.3,29.95,SSW,204,0.0,0.0,93,0.00,SCT,,0.00,WeatherDisplay:10.37,2013-10-21 02:19:00,
2013-10-20 22:24:00,44.0,42.1,29.95,SSW,204,0.0,0.0,93,0.00,SCT,,0.00,WeatherDisplay:10.37,2013-10-21 02:24:00,
2013-10-20 22:29:00,43.8,41.9,29.95,SSW,204,0.0,0.0,93,0.00,SCT,,0.00,WeatherDisplay:10.37,2013-10-21 02:29:00,
2013-10-20 22:34:00,43.9,42.0,29.95,SSW,204,0.0,0.0,93,0.00,SCT,,0.00,WeatherDisplay:10.37,2013-10-21 02:34:00,
2013-10-20 22:39:00,43.9,42.3,29.95,SSW,204,0.0,1.2,94,0.00,SCT,,0.00,WeatherDisplay:10.37,2013-10-21 02:39:00,
2013-10-20 22:44:00,43.9,42.3,29.95,SSW,204,0.0,0.0,94,0.00,SCT,,0.00,WeatherDisplay:10.37,2013-10-21 02:44:00,
2013-10-20 22:49:00,44.0,42.4,29.95,SSW,204,0.0,0.0,94,0.00,SCT,,0.00,WeatherDisplay:10.37,2013-10-21 02:49:00,
2013-10-20 22:54:00,44.0,42.4,29.95,SSW,204,0.0,0.0,94,0.00,SCT,,0.00,WeatherDisplay:10.37,2013-10-21 02:54:00,
2013-10-20 22:59:00,44.0,42.4,29.95,SSW,204,0.0,0.0,94,0.00,SCT,,0.00,WeatherDisplay:10.37,2013-10-21 02:59:00,
2013-10-20 23:04:00,44.0,42.4,29.95,SSW,204,0.0,0.0,94,0.00,BKN,,0.00,WeatherDisplay:10.37,2013-10-21 03:04:00,
2013-10-20 23:09:00,44.1,42.8,29.95,SSW,204,0.0,0.0,95,0.00,BKN,,0.00,WeatherDisplay:10.37,2013-10-21 03:09:00,
2013-10-20 23:14:00,44.2,42.9,29.95,SSW,204,0.0,0.0,95,0.00,BKN,,0.00,WeatherDisplay:10.37,2013-10-21 03:14:00,
2013-10-20 23:19:00,44.4,43.1,29.95,SSW,204,0.0,0.0,95,0.00,BKN,,0.00,WeatherDisplay:10.37,2013-10-21 03:19:00,
2013-10-20 23:24:00,44.4,43.1,29.95,SSW,204,0.0,0.0,95,0.00,BKN,,0.00,WeatherDisplay:10.37,2013-10-21 03:24:00,
2013-10-20 23:29:00,44.5,43.2,29.95,SSE,153,0.0,0.0,95,0.00,BKN,,0.00,WeatherDisplay:10.37,2013-10-21 03:29:00,
2013-10-20 23:34:00,44.7,43.4,29.95,SSE,154,0.0,0.0,95,0.00,BKN,,0.00,WeatherDisplay:10.37,2013-10-21 03:34:00,
2013-10-20 23:39:00,44.7,43.4,29.95,SSE,154,0.0,0.0,95,0.00,BKN,,0.00,WeatherDisplay:10.37,2013-10-21 03:39:00,
2013-10-20 23:44:00,44.9,43.6,29.95,SSW,201,0.2,1.2,95,0.00,BKN,,0.00,WeatherDisplay:10.37,2013-10-21 03:44:00,
2013-10-20 23:49:00,45.0,43.7,29.95,SSE,157,0.0,0.0,95,0.00,BKN,,0.00,WeatherDisplay:10.37,2013-10-21 03:49:00,
2013-10-20 23:54:00,45.1,43.8,29.95,SSE,156,0.0,0.0,95,0.00,BKN,,0.00,WeatherDisplay:10.37,2013-10-21 03:54:00,
2013-10-20 23:59:00,45.2,43.9,29.95,SSE,155,0.0,0.0,95,0.00,BKN,,0.00,WeatherDisplay:10.37,2013-10-21 03:59:00,